Time,TemperatureF,DewpointF,PressureIn,WindDirection,WindDirectionDegrees,WindSpeedMPH,WindSpeedGustMPH,Humidity,HourlyPrecipIn,Conditions,Clouds,dailyrainin,SoftwareType,DateUTC
2013-08-23 10:42:00,82.8,0.0,30.05,WNW,293,0.0,0.0,0,0.00,,,0.00,Weather View 32 v70,2013-08-23 14:42:00,
2013-08-23 10:47:00,82.9,0.0,30.00,West,270,1.0,1.0,0,0.00,,,0.00,Weather View 32 v70,2013-08-23 14:47:00,
2013-08-23 10:52:00,83.5,0.0,29.97,West,270,0.0,1.0,0,0.00,,,0.00,Weather View 32 v70,2013-08-23 14:52:00,
2013-08-23 10:57:00,83.7,0.0,29.96,West,270,0.0,2.0,0,0.00,,,0.00,Weather View 32 v70,2013-08-23 14:57:00,
2013-08-23 11:02:00,83.8,0.0,29.96,West,270,0.0,2.0,0,0.00,,,0.00,Weather View 32 v70,2013-08-23 15:02:00,
2013-08-23 11:07:00,83.8,0.0,29.96,West,270,0.0,2.0,0,0.00,,,0.00,Weather View 32 v70,2013-08-23 15:07:00,
2013-08-23 11:12:00,84.6,0.0,29.99,West,270,0.0,2.0,0,0.00,,,0.00,Weather View 32 v70,2013-08-23 15:12:00,
2013-08-23 11:17:00,85.1,0.0,29.98,West,270,0.0,2.0,0,0.00,,,0.00,Weather View 32 v70,2013-08-23 15:17:00,
2013-08-23 11:22:00,84.6,0.0,30.04,WNW,293,0.0,5.0,0,0.00,,,0.00,Weather View 32 v70,2013-08-23 15:22:00,
2013-08-23 11:27:00,84.7,0.0,30.04,WNW,293,0.0,5.0,0,0.00,,,0.00,Weather View 32 v70,2013-08-23 15:27:00,
2013-08-23 11:32:00,84.7,0.0,30.06,WNW,293,0.0,5.0,0,0.00,,,0.00,Weather View 32 v70,2013-08-23 15:32:00,
2013-08-23 11:37:00,85.3,0.0,30.05,WNW,293,0.0,5.0,0,0.00,,,0.00,Weather View 32 v70,2013-08-23 15:37:00,
2013-08-23 11:42:00,85.1,0.0,30.02,WNW,293,0.0,5.0,0,0.00,,,0.00,Weather View 32 v70,2013-08-23 15:42:00,
2013-08-23 11:47:00,84.9,0.0,30.05,West,270,0.0,5.0,0,0.00,,,0.00,Weather View 32 v70,2013-08-23 15:47:00,
2013-08-23 11:52:00,85.1,0.0,30.03,North,0,0.0,5.0,0,0.00,,,0.00,Weather View 32 v70,2013-08-23 15:52:00,
2013-08-23 11:57:00,85.6,0.0,29.97,SE,135,1.0,5.0,0,0.00,,,0.00,Weather View 32 v70,2013-08-23 15:57:00,
2013-08-23 12:02:00,86.9,0.0,30.02,NNW,338,0.0,5.0,0,0.00,,,0.00,Weather View 32 v70,2013-08-23 16:02:00,
2013-08-23 12:07:00,87.6,0.0,30.05,WNW,293,0.0,5.0,0,0.00,,,0.00,Weather View 32 v70,2013-08-23 16:07:00,
2013-08-23 12:12:00,88.2,0.0,29.96,West,270,0.0,5.0,0,0.00,,,0.00,Weather View 32 v70,2013-08-23 16:12:00,
2013-08-23 12:17:00,89.4,0.0,30.00,North,0,3.0,5.0,0,0.00,,,0.00,Weather View 32 v70,2013-08-23 16:17:00,
2013-08-23 12:22:00,90.7,0.0,29.95,North,0,2.0,4.0,0,0.00,,,0.00,Weather View 32 v70,2013-08-23 16:22:00,
2013-08-23 12:27:00,90.5,0.0,29.95,West,270,0.0,5.0,0,0.00,,,0.00,Weather View 32 v70,2013-08-23 16:27:00,
2013-08-23 12:32:00,91.4,0.0,29.96,WNW,293,0.0,5.0,0,0.00,,,0.00,Weather View 32 v70,2013-08-23 16:32:00,
2013-08-23 12:37:00,91.2,0.0,30.01,West,270,1.0,5.0,0,0.00,,,0.00,Weather View 32 v70,2013-08-23 16:37:00,
2013-08-23 12:42:00,91.0,0.0,30.00,West,270,1.0,5.0,0,0.00,,,0.00,Weather View 32 v70,2013-08-23 16:42:00,
2013-08-23 12:47:00,91.8,0.0,29.99,West,270,1.0,5.0,0,0.00,,,0.00,Weather View 32 v70,2013-08-23 16:47:00,
2013-08-23 12:52:00,92.7,0.0,29.96,North,0,3.0,5.0,0,0.00,,,0.00,Weather View 32 v70,2013-08-23 16:52:00,
2013-08-23 12:57:00,91.8,0.0,30.03,North,0,1.0,5.0,0,0.00,,,0.00,Weather View 32 v70,2013-08-23 16:57:00,
2013-08-23 13:02:00,91.8,0.0,29.96,NW,315,0.0,7.0,0,0.00,,,0.00,Weather View 32 v70,2013-08-23 17:02:00,
2013-08-23 13:07:00,90.0,0.0,30.01,WNW,293,0.0,7.0,0,0.00,,,0.00,Weather View 32 v70,2013-08-23 17:07:00,
2013-08-23 13:12:00,89.4,0.0,30.02,NW,315,2.0,7.0,0,0.00,,,0.00,Weather View 32 v70,2013-08-23 17:12:00,
2013-08-23 13:17:00,89.6,0.0,29.95,West,270,0.0,7.0,0,0.00,,,0.00,Weather View 32 v70,2013-08-23 17:17:00,
2013-08-23 13:22:00,90.0,0.0,30.01,WNW,293,0.0,7.0,0,0.00,,,0.00,Weather View 32 v70,2013-08-23 17:22:00,
2013-08-23 13:27:00,89.6,0.0,29.98,WNW,293,0.0,7.0,0,0.00,,,0.00,Weather View 32 v70,2013-08-23 17:27:00,
2013-08-23 13:32:00,88.5,0.0,30.00,WNW,293,0.0,7.0,0,0.00,,,0.00,Weather View 32 v70,2013-08-23 17:32:00,
2013-08-23 13:37:00,87.1,0.0,30.00,NE,45,3.0,7.0,0,0.00,,,0.00,Weather View 32 v70,2013-08-23 17:37:00,
2013-08-23 13:43:00,86.2,0.0,30.01,WNW,293,0.0,7.0,0,0.00,,,0.00,Weather View 32 v70,2013-08-23 17:43:00,
2013-08-23 13:50:00,86.5,0.0,30.00,WNW,293,0.0,7.0,0,0.00,,,0.00,Weather View 32 v70,2013-08-23 17:50:00,
2013-08-23 13:55:00,87.4,0.0,29.98,SE,135,3.0,7.0,0,0.00,,,0.00,Weather View 32 v70,2013-08-23 17:55:00,
2013-08-23 14:00:00,88.9,0.0,29.98,WNW,293,0.0,7.0,0,0.00,,,0.00,Weather View 32 v70,2013-08-23 18:00:00,
2013-08-23 14:05:00,88.7,0.0,29.98,NNW,338,5.0,7.0,0,0.00,,,0.00,Weather View 32 v70,2013-08-23 18:05:00,
2013-08-23 14:10:00,88.3,0.0,29.99,NW,315,6.0,8.0,0,0.00,,,0.00,Weather View 32 v70,2013-08-23 18:10:00,
2013-08-23 14:15:00,88.2,0.0,29.98,West,270,0.0,8.0,0,0.00,,,0.00,Weather View 32 v70,2013-08-23 18:15:00,
2013-08-23 14:20:00,88.7,0.0,29.97,West,270,0.0,8.0,0,0.00,,,0.00,Weather View 32 v70,2013-08-23 18:20:00,
2013-08-23 14:25:00,88.2,0.0,29.97,NNW,338,2.0,8.0,0,0.00,,,0.00,Weather View 32 v70,2013-08-23 18:25:00,
2013-08-23 14:30:00,86.9,0.0,29.96,WNW,293,0.0,8.0,0,0.00,,,0.00,Weather View 32 v70,2013-08-23 18:30:00,
2013-08-23 14:35:00,87.1,0.0,30.00,West,270,0.0,8.0,0,0.00,,,0.00,Weather View 32 v70,2013-08-23 18:35:00,
2013-08-23 14:40:00,86.7,0.0,29.96,NNE,23,2.0,8.0,0,0.00,,,0.00,Weather View 32 v70,2013-08-23 18:40:00,
2013-08-23 14:45:00,85.6,0.0,29.93,West,270,0.0,8.0,0,0.00,,,0.00,Weather View 32 v70,2013-08-23 18:45:00,
2013-08-23 14:55:00,87.1,0.0,29.95,WNW,293,0.0,8.0,0,0.00,,,0.00,Weather View 32 v70,2013-08-23 18:55:00,
2013-08-23 15:00:00,88.2,0.0,29.92,North,0,3.0,8.0,0,0.00,,,0.00,Weather View 32 v70,2013-08-23 19:00:00,
2013-08-23 15:05:00,89.1,0.0,29.89,North,0,4.0,8.0,0,0.00,,,0.00,Weather View 32 v70,2013-08-23 19:05:00,
2013-08-23 15:10:00,89.2,0.0,29.98,WNW,293,0.0,8.0,0,0.00,,,0.00,Weather View 32 v70,2013-08-23 19:10:00,
2013-08-23 15:15:00,89.2,0.0,29.90,North,0,6.0,8.0,0,0.00,,,0.00,Weather View 32 v70,2013-08-23 19:15:00,
2013-08-23 15:20:00,89.6,0.0,29.91,West,270,1.0,8.0,0,0.00,,,0.00,Weather View 32 v70,2013-08-23 19:20:00,
2013-08-23 15:25:00,89.8,0.0,29.92,WNW,293,0.0,8.0,0,0.00,,,0.00,Weather View 32 v70,2013-08-23 19:25:00,
2013-08-23 15:30:00,90.0,0.0,29.92,WNW,293,0.0,8.0,0,0.00,,,0.00,Weather View 32 v70,2013-08-23 19:30:00,
2013-08-23 15:35:00,90.9,0.0,29.91,North,0,2.0,8.0,0,0.00,,,0.00,Weather View 32 v70,2013-08-23 19:35:00,
2013-08-23 15:40:00,90.0,0.0,29.90,West,270,1.0,8.0,0,0.00,,,0.00,Weather View 32 v70,2013-08-23 19:40:00,
2013-08-23 15:45:00,89.4,0.0,29.95,West,270,0.0,8.0,0,0.00,,,0.00,Weather View 32 v70,2013-08-23 19:45:00,
2013-08-23 15:50:00,88.7,0.0,29.95,WNW,293,0.0,8.0,0,0.00,,,0.00,Weather View 32 v70,2013-08-23 19:50:00,
2013-08-23 15:55:00,88.5,0.0,29.92,West,270,0.0,8.0,0,0.00,,,0.00,Weather View 32 v70,2013-08-23 19:55:00,
2013-08-23 16:00:00,88.2,0.0,29.94,West,270,0.0,7.0,0,0.00,,,0.00,Weather View 32 v70,2013-08-23 20:00:00,
2013-08-23 16:05:00,87.3,0.0,29.88,West,270,0.0,7.0,0,0.00,,,0.00,Weather View 32 v70,2013-08-23 20:05:00,
2013-08-23 16:10:00,86.4,0.0,29.88,West,270,0.0,7.0,0,0.00,,,0.00,Weather View 32 v70,2013-08-23 20:10:00,
2013-08-23 16:15:00,86.5,0.0,29.90,West,270,0.0,7.0,0,0.00,,,0.00,Weather View 32 v70,2013-08-23 20:15:00,
2013-08-23 16:20:00,87.3,0.0,29.88,North,0,5.0,5.0,0,0.00,,,0.00,Weather View 32 v70,2013-08-23 20:20:00,
2013-08-23 16:25:00,87.6,0.0,29.92,WNW,293,0.0,5.0,0,0.00,,,0.00,Weather View 32 v70,2013-08-23 20:25:00,
2013-08-23 16:30:00,87.3,0.0,29.96,WNW,293,1.0,5.0,0,0.00,,,0.00,Weather View 32 v70,2013-08-23 20:30:00,
2013-08-23 16:35:00,87.3,0.0,29.91,WNW,293,0.0,5.0,0,0.00,,,0.00,Weather View 32 v70,2013-08-23 20:35:00,
2013-08-23 16:40:00,87.3,0.0,29.90,West,270,0.0,5.0,0,0.00,,,0.00,Weather View 32 v70,2013-08-23 20:40:00,
2013-08-23 16:45:00,87.4,0.0,29.89,West,270,0.0,5.0,0,0.00,,,0.00,Weather View 32 v70,2013-08-23 20:45:00,
2013-08-23 16:50:00,87.3,0.0,29.89,West,270,0.0,5.0,0,0.00,,,0.00,Weather View 32 v70,2013-08-23 20:50:00,
2013-08-23 16:55:00,86.7,0.0,29.91,North,0,1.0,5.0,0,0.00,,,0.00,Weather View 32 v70,2013-08-23 20:55:00,
2013-08-23 17:00:00,86.0,0.0,29.88,West,270,1.0,5.0,0,0.00,,,0.00,Weather View 32 v70,2013-08-23 21:00:00,
2013-08-23 17:05:00,86.2,0.0,29.92,WNW,293,0.0,5.0,0,0.00,,,0.00,Weather View 32 v70,2013-08-23 21:05:00,
2013-08-23 17:10:00,85.8,0.0,29.97,WNW,293,0.0,5.0,0,0.00,,,0.00,Weather View 32 v70,2013-08-23 21:10:00,
2013-08-23 17:15:00,85.3,0.0,29.96,WNW,293,0.0,5.0,0,0.00,,,0.00,Weather View 32 v70,2013-08-23 21:15:00,
2013-08-23 17:20:00,85.3,0.0,29.97,WNW,293,0.0,5.0,0,0.00,,,0.00,Weather View 32 v70,2013-08-23 21:20:00,
2013-08-23 17:25:00,85.6,0.0,29.97,WNW,293,0.0,4.0,0,0.00,,,0.00,Weather View 32 v70,2013-08-23 21:25:00,
2013-08-23 17:30:00,85.5,0.0,29.95,NE,45,2.0,6.0,0,0.00,,,0.00,Weather View 32 v70,2013-08-23 21:30:00,
2013-08-23 17:35:00,85.1,0.0,29.97,WNW,293,2.0,6.0,0,0.00,,,0.00,Weather View 32 v70,2013-08-23 21:35:00,
2013-08-23 17:40:00,84.9,0.0,29.95,NW,315,1.0,6.0,0,0.00,,,0.00,Weather View 32 v70,2013-08-23 21:40:00,
2013-08-23 17:45:00,84.4,0.0,29.96,WNW,293,0.0,6.0,0,0.00,,,0.00,Weather View 32 v70,2013-08-23 21:45:00,
2013-08-23 17:55:00,82.9,0.0,29.97,NNW,338,2.0,7.0,0,0.00,,,0.00,Weather View 32 v70,2013-08-23 21:55:00,
2013-08-23 18:05:00,83.1,0.0,29.98,NNE,23,2.0,7.0,0,0.00,,,0.00,Weather View 32 v70,2013-08-23 22:05:00,
2013-08-23 18:10:00,83.1,0.0,29.96,WNW,293,0.0,7.0,0,0.00,,,0.00,Weather View 32 v70,2013-08-23 22:10:00,
2013-08-23 18:15:00,83.5,0.0,29.96,WNW,293,2.0,7.0,0,0.00,,,0.00,Weather View 32 v70,2013-08-23 22:15:00,
2013-08-23 18:20:00,83.1,0.0,29.96,WNW,293,0.0,7.0,0,0.00,,,0.00,Weather View 32 v70,2013-08-23 22:20:00,
2013-08-23 18:25:00,82.8,0.0,29.95,ENE,68,3.0,7.0,0,0.00,,,0.00,Weather View 32 v70,2013-08-23 22:25:00,
2013-08-23 18:30:00,82.4,0.0,29.96,West,270,2.0,7.0,0,0.00,,,0.00,Weather View 32 v70,2013-08-23 22:30:00,
2013-08-23 18:35:00,81.9,0.0,29.98,NNW,338,0.0,7.0,0,0.00,,,0.00,Weather View 32 v70,2013-08-23 22:35:00,
2013-08-23 18:40:00,81.3,0.0,29.99,WNW,293,0.0,7.0,0,0.00,,,0.00,Weather View 32 v70,2013-08-23 22:40:00,
2013-08-23 18:45:00,81.0,0.0,29.99,WNW,293,0.0,7.0,0,0.00,,,0.00,Weather View 32 v70,2013-08-23 22:45:00,
2013-08-23 18:50:00,81.1,0.0,29.99,North,0,1.0,7.0,0,0.00,,,0.00,Weather View 32 v70,2013-08-23 22:50:00,
2013-08-23 18:55:00,80.6,0.0,29.97,North,0,8.0,10.0,0,0.00,,,0.00,Weather View 32 v70,2013-08-23 22:55:00,
2013-08-23 19:00:00,79.3,0.0,30.00,NW,315,3.0,16.0,0,0.00,,,0.00,Weather View 32 v70,2013-08-23 23:00:00,
2013-08-23 19:05:00,78.3,0.0,30.00,NNE,23,5.0,16.0,0,0.00,,,0.00,Weather View 32 v70,2013-08-23 23:05:00,
2013-08-23 19:10:00,77.4,0.0,30.00,NW,315,4.0,16.0,0,0.00,,,0.00,Weather View 32 v70,2013-08-23 23:10:00,
2013-08-23 19:15:00,76.8,0.0,30.00,NW,315,1.0,16.0,0,0.00,,,0.00,Weather View 32 v70,2013-08-23 23:15:00,
2013-08-23 19:20:00,76.3,0.0,30.00,North,0,4.0,16.0,0,0.00,,,0.00,Weather View 32 v70,2013-08-23 23:20:00,
2013-08-23 19:25:00,75.7,0.0,30.00,NW,315,2.0,16.0,0,0.00,,,0.00,Weather View 32 v70,2013-08-23 23:25:00,
2013-08-23 19:30:00,75.7,0.0,29.99,North,0,2.0,16.0,0,0.00,,,0.00,Weather View 32 v70,2013-08-23 23:30:00,
2013-08-23 19:35:00,75.2,0.0,30.01,NNW,338,2.0,16.0,0,0.00,,,0.00,Weather View 32 v70,2013-08-23 23:35:00,
2013-08-23 19:40:00,74.8,0.0,30.01,NNE,23,6.0,16.0,0,0.00,,,0.00,Weather View 32 v70,2013-08-23 23:40:00,
2013-08-23 19:46:00,74.5,0.0,30.02,North,0,3.0,16.0,0,0.00,,,0.00,Weather View 32 v70,2013-08-23 23:46:00,
2013-08-23 19:55:00,73.8,0.0,30.02,NNE,23,6.0,16.0,0,0.00,,,0.00,Weather View 32 v70,2013-08-23 23:55:00,
2013-08-23 20:00:00,73.6,0.0,30.03,North,0,5.0,14.0,0,0.00,,,0.00,Weather View 32 v70,2013-08-24 00:00:00,
2013-08-23 20:05:00,73.4,0.0,30.01,WNW,293,1.0,14.0,0,0.00,,,0.00,Weather View 32 v70,2013-08-24 00:05:00,
2013-08-23 20:10:00,73.6,0.0,30.02,North,0,4.0,14.0,0,0.00,,,0.00,Weather View 32 v70,2013-08-24 00:10:00,
2013-08-23 20:15:00,73.2,0.0,30.02,NNW,338,6.0,14.0,0,0.00,,,0.00,Weather View 32 v70,2013-08-24 00:15:00,
2013-08-23 20:20:00,73.2,0.0,30.03,North,0,2.0,14.0,0,0.00,,,0.00,Weather View 32 v70,2013-08-24 00:20:00,
2013-08-23 20:25:00,73.0,0.0,30.03,NNW,338,4.0,14.0,0,0.00,,,0.00,Weather View 32 v70,2013-08-24 00:25:00,
2013-08-23 20:30:00,72.9,0.0,30.02,NW,315,2.0,14.0,0,0.00,,,0.00,Weather View 32 v70,2013-08-24 00:30:00,
2013-08-23 20:35:00,72.7,0.0,30.03,NNW,338,2.0,14.0,0,0.00,,,0.00,Weather View 32 v70,2013-08-24 00:35:00,
2013-08-23 20:40:00,72.7,0.0,30.04,NE,45,5.0,14.0,0,0.00,,,0.00,Weather View 32 v70,2013-08-24 00:40:00,
2013-08-23 20:45:00,72.3,0.0,30.04,NNE,23,6.0,14.0,0,0.00,,,0.00,Weather View 32 v70,2013-08-24 00:45:00,
2013-08-23 20:50:00,72.1,0.0,30.05,NE,45,12.0,15.0,0,0.00,,,0.00,Weather View 32 v70,2013-08-24 00:50:00,
2013-08-23 20:55:00,72.1,0.0,30.06,WNW,293,1.0,15.0,0,0.00,,,0.00,Weather View 32 v70,2013-08-24 00:55:00,
2013-08-23 20:58:00,72.1,0.0,30.05,North,0,4.0,15.0,0,0.00,,,0.00,Weather View 32 v70,2013-08-24 00:58:00,